Time;durP1;ratioP1;P1;durP2;ratioP2;P2;SDS_P1;SDS_P2;PMS_P1;PMS_P2;Temp;Humidity;BMP_temperature;BMP_pressure;BME280_temperature;BME280_humidity;BME280_pressure;Samples;Min_cycle;Max_cycle;Signal;HPM_P1;HPM_P2
2022/12/16 00:01:17;;;;;;;57.93;41.57;;;-0.10;99.90;;;;;;5056937;28;20045;-81
2022/12/16 00:03:49;;;;;;;61.77;43.03;;;0.00;99.90;;;;;;5040685;28;20231;-81
2022/12/16 00:06:15;;;;;;;64.93;43.45;;;0.00;99.90;;;;;;5040469;28;20916;-81
2022/12/16 00:08:41;;;;;;;60.37;42.93;;;0.00;99.90;;;;;;5056743;28;20080;-82
2022/12/16 00:11:07;;;;;;;64.60;42.10;;;-0.10;99.90;;;;;;5040377;28;20076;-81
2022/12/16 00:13:35;;;;;;;62.43;41.67;;;0.00;99.90;;;;;;5056911;28;20650;-82
2022/12/16 00:16:06;;;;;;;60.43;40.33;;;0.00;99.90;;;;;;5040358;28;20044;-82
2022/12/16 00:18:32;;;;;;;61.85;42.15;;;0.00;99.90;;;;;;5040175;28;20093;-82
2022/12/16 00:20:58;;;;;;;65.60;43.80;;;0.00;99.90;;;;;;5023856;28;20044;-82
2022/12/16 00:23:23;;;;;;;63.90;42.70;;;0.00;99.90;;;;;;5040065;28;20127;-81
2022/12/16 00:25:49;;;;;;;65.20;42.47;;;0.10;99.90;;;;;;5074359;28;20044;-82
2022/12/16 00:28:17;;;;;;;61.33;42.00;;;0.10;99.90;;;;;;5039943;28;20037;-82
2022/12/16 00:30:44;;;;;;;60.27;42.77;;;0.10;99.90;;;;;;5039302;28;20048;-81
2022/12/16 00:33:09;;;;;;;63.60;41.87;;;0.10;99.90;;;;;;5056168;28;20048;-81
2022/12/16 00:35:35;;;;;;;58.43;41.07;;;0.10;99.90;;;;;;5040074;28;20110;-82
2022/12/16 00:38:01;;;;;;;56.53;40.70;;;0.10;99.90;;;;;;5023194;28;20362;-82
2022/12/16 00:40:27;;;;;;;63.27;41.97;;;0.20;99.90;;;;;;5023089;28;20041;-82
2022/12/16 00:42:52;;;;;;;59.07;39.53;;;0.20;99.90;;;;;;5055876;28;20032;-82
2022/12/16 00:45:18;;;;;;;57.10;40.23;;;0.20;99.90;;;;;;5038857;28;20052;-82
2022/12/16 00:47:44;;;;;;;61.33;42.47;;;0.20;99.90;;;;;;5073635;28;20149;-82
2022/12/16 00:50:10;;;;;;;61.83;42.23;;;0.20;99.90;;;;;;5039397;28;20044;-82
2022/12/16 00:52:36;;;;;;;62.60;44.00;;;0.20;99.90;;;;;;5056095;28;20059;-81
2022/12/16 00:55:02;;;;;;;66.03;43.57;;;0.10;99.90;;;;;;5039694;28;20040;-81
2022/12/16 00:57:28;;;;;;;63.67;43.53;;;0.10;99.90;;;;;;5056043;28;20054;-81
2022/12/16 00:59:54;;;;;;;61.23;43.07;;;0.10;99.90;;;;;;5039474;28;20037;-81
2022/12/16 01:02:19;;;;;;;63.33;43.50;;;0.10;99.90;;;;;;5055897;28;20098;-82
2022/12/16 01:04:45;;;;;;;60.40;41.73;;;0.10;99.90;;;;;;5019558;28;20041;-82
2022/12/16 01:07:11;;;;;;;63.93;44.47;;;0.10;99.90;;;;;;5020161;28;20127;-82
2022/12/16 01:09:36;;;;;;;64.47;44.13;;;0.10;99.90;;;;;;5004716;28;20048;-81
2022/12/16 01:12:02;;;;;;;68.80;45.27;;;0.00;99.90;;;;;;5003214;28;20199;-82
2022/12/16 01:14:28;;;;;;;65.53;44.50;;;0.00;99.90;;;;;;5019007;28;20103;-81
2022/12/16 01:16:53;;;;;;;65.10;46.23;;;0.00;99.90;;;;;;5047045;28;20114;-82
2022/12/16 01:19:19;;;;;;;64.63;43.63;;;0.00;99.90;;;;;;5022482;28;20075;-82
2022/12/16 01:21:45;;;;;;;68.17;46.33;;;0.00;99.90;;;;;;5055781;28;20127;-81
2022/12/16 01:24:11;;;;;;;66.97;46.30;;;0.00;99.90;;;;;;5055584;28;20036;-81
2022/12/16 01:26:38;;;;;;;65.00;42.87;;;0.00;99.90;;;;;;5055357;28;20040;-81
2022/12/16 01:29:05;;;;;;;66.33;45.27;;;0.10;99.90;;;;;;5022503;28;20137;-81
2022/12/16 01:31:30;;;;;;;66.80;45.43;;;0.10;99.90;;;;;;5037859;28;20045;-81
2022/12/16 01:33:57;;;;;;;66.00;45.73;;;0.10;99.90;;;;;;5055543;28;20411;-82
2022/12/16 01:36:23;;;;;;;67.30;45.33;;;0.00;99.90;;;;;;5022166;28;20043;-82
2022/12/16 01:38:49;;;;;;;69.80;46.40;;;0.00;99.90;;;;;;5038671;28;20086;-81
2022/12/16 01:41:15;;;;;;;59.63;43.40;;;0.00;99.90;;;;;;5038778;28;20036;-82
2022/12/16 01:43:43;;;;;;;61.77;43.27;;;0.10;99.90;;;;;;5038845;28;20079;-82
2022/12/16 01:46:12;;;;;;;63.43;44.37;;;0.10;99.90;;;;;;5073507;28;20072;-82
2022/12/16 01:48:58;;;;;;;63.30;45.30;;;0.10;99.90;;;;;;5038817;28;20048;-82
2022/12/16 01:51:32;;;;;;;64.57;44.50;;;0.10;99.90;;;;;;5038925;28;20047;-82
2022/12/16 01:54:09;;;;;;;65.87;45.40;;;0.10;99.90;;;;;;5038913;28;20040;-82
2022/12/16 01:56:39;;;;;;;63.60;44.93;;;0.10;99.90;;;;;;5055203;28;20037;-81
2022/12/16 01:59:05;;;;;;;65.67;45.27;;;0.10;99.90;;;;;;5055045;28;20111;-82
2022/12/16 02:01:31;;;;;;;66.57;45.03;;;0.10;99.90;;;;;;5055334;28;20029;-81
2022/12/16 02:04:01;;;;;;;65.03;44.57;;;0.10;99.90;;;;;;5055270;28;20050;-81
2022/12/16 02:06:29;;;;;;;64.53;44.10;;;0.10;99.90;;;;;;5072894;28;20040;-82
2022/12/16 02:08:57;;;;;;;61.27;43.47;;;0.10;99.90;;;;;;5038534;28;20037;-86
2022/12/16 02:11:47;;;;;;;61.70;43.10;;;0.10;99.90;;;;;;5038680;28;20040;-86
2022/12/16 02:14:33;;;;;;;63.37;43.60;;;0.10;99.90;;;;;;5055160;28;20036;-86
2022/12/16 02:17:11;;;;;;;60.40;43.20;;;0.10;99.90;;;;;;5054118;28;20094;-86
2022/12/16 02:20:14;;;;;;;62.43;44.70;;;0.10;99.90;;;;;;5038073;28;20041;-87
2022/12/16 02:22:43;;;;;;;61.70;43.83;;;0.20;99.90;;;;;;5038146;28;20123;-86
2022/12/16 02:25:14;;;;;;;61.33;43.40;;;0.10;99.90;;;;;;5038458;28;20377;-86
2022/12/16 02:27:52;;;;;;;65.00;43.17;;;0.10;99.90;;;;;;5038645;28;20416;-86
2022/12/16 02:30:30;;;;;;;66.10;45.10;;;0.10;99.90;;;;;;5038210;28;20051;-85
2022/12/16 02:33:08;;;;;;;66.03;44.53;;;0.10;99.90;;;;;;5038718;28;20044;-86
2022/12/16 02:35:55;;;;;;;65.07;44.70;;;0.10;99.90;;;;;;5035124;28;20098;-85
2022/12/16 02:38:55;;;;;;;63.30;42.93;;;0.20;99.90;;;;;;5018262;28;20447;-86
2022/12/16 02:41:42;;;;;;;68.63;46.53;;;0.10;99.90;;;;;;5035094;28;20037;-86
2022/12/16 02:44:09;;;;;;;67.17;45.97;;;0.10;99.90;;;;;;5018118;28;20143;-86
2022/12/16 02:46:41;;;;;;;60.87;42.87;;;0.10;99.90;;;;;;5018304;28;20467;-86
2022/12/16 02:49:12;;;;;;;70.63;47.60;;;0.10;99.90;;;;;;5036122;28;20091;-86
2022/12/16 02:51:38;;;;;;;62.65;43.40;;;0.20;99.90;;;;;;5022248;28;20119;-86
2022/12/16 02:54:08;;;;;;;60.87;43.43;;;0.20;99.90;;;;;;5022145;28;20415;-86
2022/12/16 02:56:49;;;;;;;62.20;42.70;;;0.20;99.90;;;;;;5021830;28;20403;-86
2022/12/16 02:59:23;;;;;;;67.63;44.30;;;0.20;99.90;;;;;;5022408;28;20037;-86
2022/12/16 03:02:08;;;;;;;67.60;45.43;;;0.20;99.90;;;;;;5038295;28;20044;-86
2022/12/16 03:04:42;;;;;;;67.33;45.33;;;0.20;99.90;;;;;;5028583;28;20052;-86
2022/12/16 03:07:12;;;;;;;70.83;48.00;;;0.20;99.90;;;;;;5041723;28;20454;-86
2022/12/16 03:09:40;;;;;;;69.90;47.93;;;0.20;99.90;;;;;;5041394;28;20047;-86
2022/12/16 03:12:11;;;;;;;65.57;45.77;;;0.20;99.90;;;;;;5041392;28;20080;-86
2022/12/16 03:14:40;;;;;;;64.72;45.75;;;0.20;99.90;;;;;;5058123;28;20045;-86
2022/12/16 03:17:07;;;;;;;69.83;47.77;;;0.10;99.90;;;;;;5041135;28;20045;-86
2022/12/16 03:19:34;;;;;;;72.67;48.97;;;0.20;99.90;;;;;;5041235;28;20051;-86
2022/12/16 03:22:06;;;;;;;70.10;46.17;;;0.20;99.90;;;;;;5041248;28;20115;-85
2022/12/16 03:24:33;;;;;;;67.72;46.13;;;0.20;99.90;;;;;;5057850;28;20033;-86
2022/12/16 03:27:04;;;;;;;70.20;47.13;;;0.10;99.90;;;;;;5041227;28;20036;-86
2022/12/16 03:30:27;;;;;;;71.30;49.67;;;0.20;99.90;;;;;;5041554;28;20044;-85
2022/12/16 03:33:01;;;;;;;68.50;47.22;;;0.10;99.90;;;;;;4958567;28;20047;-86
2022/12/16 03:35:41;;;;;;;69.27;47.37;;;0.10;99.90;;;;;;4958738;28;20050;-86
2022/12/16 03:38:10;;;;;;;71.00;47.07;;;0.10;99.90;;;;;;5018549;28;20056;-86
2022/12/16 03:40:40;;;;;;;68.37;45.57;;;0.10;99.90;;;;;;5041191;28;20396;-86
2022/12/16 03:43:06;;;;;;;74.57;47.10;;;0.20;99.90;;;;;;5040919;28;20107;-86
2022/12/16 03:45:37;;;;;;;71.73;47.10;;;0.20;99.90;;;;;;5040910;28;20068;-86
2022/12/16 03:48:07;;;;;;;67.20;46.93;;;0.20;99.90;;;;;;5057325;28;20098;-86
2022/12/16 03:50:34;;;;;;;66.73;46.03;;;0.20;99.90;;;;;;5041296;28;20040;-85
2022/12/16 03:53:00;;;;;;;70.67;46.97;;;0.20;99.90;;;;;;5057157;28;20037;-85
2022/12/16 03:55:27;;;;;;;73.73;48.57;;;0.20;99.90;;;;;;5040807;28;20040;-86
2022/12/16 03:57:52;;;;;;;67.40;47.73;;;0.20;99.90;;;;;;5040555;28;20036;-86
2022/12/16 04:00:19;;;;;;;71.37;47.13;;;0.20;99.90;;;;;;5023664;28;20409;-86
2022/12/16 04:02:44;;;;;;;70.93;46.57;;;0.20;99.90;;;;;;5040500;28;20426;-86
2022/12/16 04:05:10;;;;;;;66.23;46.57;;;0.20;99.90;;;;;;5024019;28;20074;-86
2022/12/16 04:07:36;;;;;;;69.97;46.80;;;0.20;99.90;;;;;;5023901;28;20045;-86
2022/12/16 04:10:03;;;;;;;67.30;46.00;;;0.20;99.90;;;;;;5040516;28;20135;-86
2022/12/16 04:29:24;;;;;;;59.17;39.73;;;0.40;99.90;;;;;;5022042;28;20048;-86
2022/12/16 04:31:50;;;;;;;62.10;41.30;;;0.40;99.90;;;;;;5022965;28;20048;-86
2022/12/16 04:34:25;;;;;;;57.17;40.00;;;0.40;99.90;;;;;;5056637;28;20514;-86
